createdAt,value
2017-12-04T00:02:17.817Z,98098.80
2017-12-04T00:04:43.969Z,98104.07
2017-12-04T00:07:10.051Z,98101.34
2017-12-04T00:09:36.108Z,98096.95
2017-12-04T00:12:02.200Z,98096.03
2017-12-04T00:14:28.229Z,98091.24
2017-12-04T00:16:54.283Z,98088.16
2017-12-04T00:19:20.397Z,98091.73
2017-12-04T00:21:46.547Z,98093.88
2017-12-04T00:24:12.643Z,98095.20
2017-12-04T00:26:38.714Z,98088.16
2017-12-04T00:29:04.791Z,98091.16
2017-12-04T00:31:30.815Z,98095.50
2017-12-04T00:33:56.874Z,98095.50
2017-12-04T00:36:22.885Z,98094.17
2017-12-04T00:38:48.951Z,98094.63
2017-12-04T00:41:14.987Z,98095.98
2017-12-04T00:43:41.289Z,98088.17
2017-12-04T00:46:07.357Z,98083.38
2017-12-04T00:48:33.354Z,98084.30
2017-12-04T00:50:59.426Z,98093.05
2017-12-04T00:53:25.468Z,98095.25
2017-12-04T00:55:51.488Z,98104.47
2017-12-04T00:58:17.582Z,98097.05
2017-12-04T01:00:43.734Z,98103.63
2017-12-04T01:03:09.924Z,98104.91
2017-12-04T01:05:35.984Z,98101.44
2017-12-04T01:08:01.990Z,98104.47
2017-12-04T01:10:28.058Z,98104.42
2017-12-04T01:12:54.133Z,98107.06
2017-12-04T01:15:20.270Z,98094.31
2017-12-04T01:17:46.257Z,98099.19
2017-12-04T01:20:12.281Z,98103.94
2017-12-04T01:22:38.466Z,98104.38
2017-12-04T01:25:05.429Z,98108.33
2017-12-04T01:27:31.530Z,98109.61
2017-12-04T01:29:57.541Z,98112.23
2017-12-04T01:32:23.534Z,98109.52
2017-12-04T01:34:49.700Z,98111.72
2017-12-04T01:37:15.689Z,98118.82
2017-12-04T01:39:41.941Z,98125.81
2017-12-04T01:42:07.932Z,98129.28
2017-12-04T01:44:33.952Z,98131.91
2017-12-04T01:47:00.063Z,98135.87
2017-12-04T01:49:26.076Z,98139.83
2017-12-04T01:51:52.169Z,98138.91
2017-12-04T01:54:18.301Z,98132.80
2017-12-04T01:56:44.316Z,98129.68
2017-12-04T01:59:10.460Z,98125.28
2017-12-04T02:01:36.481Z,98122.64
2017-12-04T02:04:02.589Z,98127.03
2017-12-04T02:06:28.707Z,98130.55
2017-12-04T02:08:54.821Z,98123.53
2017-12-04T02:11:20.834Z,98130.12
2017-12-04T02:13:46.887Z,98129.20
2017-12-04T02:16:12.976Z,98123.08
2017-12-04T02:18:39.105Z,98130.12
2017-12-04T02:21:05.163Z,98131.92
2017-12-04T02:23:31.224Z,98128.45
2017-12-04T02:25:57.573Z,98127.61
2017-12-04T02:28:23.606Z,98128.05
2017-12-04T02:30:49.664Z,98134.21
2017-12-04T02:33:15.950Z,98135.05
2017-12-04T02:35:42.003Z,98132.84
2017-12-04T02:38:08.084Z,98131.04
2017-12-04T02:40:34.273Z,98125.77
2017-12-04T02:43:00.413Z,98126.69
2017-12-04T02:45:26.821Z,98135.87
2017-12-04T02:47:52.938Z,98137.62
2017-12-04T02:50:19.316Z,98140.66
2017-12-04T02:52:45.467Z,98138.90
2017-12-04T02:55:11.635Z,98134.02
2017-12-04T02:57:37.799Z,98131.83
2017-12-04T03:00:03.811Z,98142.81
2017-12-04T03:02:29.883Z,98143.69
2017-12-04T03:04:55.936Z,98146.72
2017-12-04T03:07:21.963Z,98142.33
2017-12-04T03:09:48.634Z,98143.59
2017-12-04T03:12:14.669Z,98140.00
2017-12-04T03:14:40.711Z,98140.87
2017-12-04T03:17:06.749Z,98137.44
2017-12-04T03:19:32.794Z,98138.77
2017-12-04T03:21:58.921Z,98151.46
2017-12-04T03:24:24.975Z,98144.42
2017-12-04T03:26:51.017Z,98145.70
2017-12-04T03:29:17.096Z,98144.34
2017-12-04T03:31:43.200Z,98144.77
2017-12-04T03:34:09.248Z,98144.25
2017-12-04T03:36:35.314Z,98140.30
2017-12-04T03:39:01.531Z,98146.40
2017-12-04T03:41:27.626Z,98149.87
2017-12-04T03:43:53.724Z,98152.02
2017-12-04T03:46:19.807Z,98146.70
2017-12-04T03:48:45.923Z,98148.42
2017-12-04T03:51:11.988Z,98149.73
2017-12-04T03:53:38.072Z,98154.03
2017-12-04T03:56:04.120Z,98158.86
2017-12-04T03:58:30.123Z,98144.80
2017-12-04T04:00:56.148Z,98150.56
2017-12-04T04:03:22.323Z,98158.88
2017-12-04T04:05:48.370Z,98153.20
2017-12-04T04:08:14.355Z,98156.67
2017-12-04T04:10:40.334Z,98146.52
2017-12-04T04:13:06.362Z,98158.39
2017-12-04T04:15:32.398Z,98156.58
2017-12-04T04:17:59.086Z,98159.66
2017-12-04T04:20:29.132Z,98161.84
2017-12-04T04:22:55.209Z,98171.00
2017-12-04T04:25:21.263Z,98166.16
2017-12-04T04:27:47.285Z,98174.85
2017-12-04T04:30:13.319Z,98174.38
2017-12-04T04:32:39.339Z,98172.57
2017-12-04T04:35:05.405Z,98175.59
2017-12-04T04:37:31.477Z,98176.04
2017-12-04T04:39:58.066Z,98168.56
2017-12-04T04:42:24.151Z,98178.59
2017-12-04T04:44:50.250Z,98179.91
2017-12-04T04:47:16.326Z,98182.62
2017-12-04T04:49:42.316Z,98188.30
2017-12-04T04:52:08.418Z,98189.61
2017-12-04T04:54:34.577Z,98186.98
2017-12-04T04:57:00.623Z,98188.69
2017-12-04T04:59:26.822Z,98194.36
2017-12-04T05:01:52.826Z,98196.08
2017-12-04T05:04:18.851Z,98191.20
2017-12-04T05:06:45.006Z,98195.58
2017-12-04T05:09:11.104Z,98191.59
2017-12-04T05:11:37.100Z,98191.98
2017-12-04T05:14:03.178Z,98196.73
2017-12-04T05:16:29.279Z,98198.48
2017-12-04T05:18:55.432Z,98197.16
2017-12-04T05:21:21.491Z,98200.23
2017-12-04T05:23:47.567Z,98197.60
2017-12-04T05:26:13.627Z,98205.55
2017-12-04T05:28:39.751Z,98202.92
2017-12-04T05:31:05.850Z,98205.16
2017-12-04T05:33:31.941Z,98209.08
2017-12-04T05:35:58.033Z,98213.43
2017-12-04T05:38:24.050Z,98212.98
2017-12-04T05:40:50.597Z,98218.26
2017-12-04T05:43:16.603Z,98214.70
2017-12-04T05:45:42.675Z,98217.30
2017-12-04T05:48:08.807Z,98214.17
2017-12-04T05:50:34.823Z,98219.00
2017-12-04T05:53:00.881Z,98214.61
2017-12-04T05:55:27.008Z,98215.45
2017-12-04T05:57:53.008Z,98220.28
2017-12-04T06:00:20.023Z,98219.88
2017-12-04T06:02:46.404Z,98218.08
2017-12-04T06:05:12.561Z,98218.08
2017-12-04T06:07:38.579Z,98222.03
2017-12-04T06:10:04.663Z,98220.32
2017-12-04T06:12:30.748Z,98234.83
2017-12-04T06:14:56.779Z,98234.84
2017-12-04T06:17:22.767Z,98231.28
2017-12-04T06:19:48.861Z,98226.05
2017-12-04T06:22:15.046Z,98228.23
2017-12-04T06:24:41.057Z,98236.50
2017-12-04T06:27:07.072Z,98250.48
2017-12-04T06:29:33.236Z,98249.55
2017-12-04T06:31:59.354Z,98246.48
2017-12-04T06:34:25.492Z,98246.09
2017-12-04T06:36:51.498Z,98256.69
2017-12-04T06:39:17.532Z,98265.03
2017-12-04T06:41:43.607Z,98268.08
2017-12-04T06:44:09.687Z,98269.83
2017-12-04T06:46:35.744Z,98271.53
2017-12-04T06:49:01.887Z,98274.62
2017-12-04T06:51:28.017Z,98280.28
2017-12-04T06:53:54.292Z,98296.08
2017-12-04T06:56:20.432Z,98293.84
2017-12-04T06:58:46.809Z,98307.82
2017-12-04T07:01:13.296Z,98303.81
2017-12-04T07:03:39.396Z,98304.21
2017-12-04T07:06:05.634Z,98305.00
2017-12-04T07:08:31.862Z,98306.18
2017-12-04T07:10:58.008Z,98308.73
2017-12-04T07:13:24.225Z,98312.59
2017-12-04T07:15:50.313Z,98318.71
2017-12-04T07:18:16.423Z,98323.46
2017-12-04T07:20:42.585Z,98325.56
2017-12-04T07:23:08.749Z,98316.29
2017-12-04T07:25:34.855Z,98311.39
2017-12-04T07:28:01.025Z,98305.20
2017-12-04T07:30:27.136Z,98301.58
2017-12-04T07:32:53.461Z,98302.77
2017-12-04T07:35:19.866Z,98306.63
2017-12-04T07:37:46.378Z,98305.66
2017-12-04T07:40:12.450Z,98311.73
2017-12-04T07:42:38.548Z,98318.28
2017-12-04T07:45:04.613Z,98328.36
2017-12-04T07:47:30.771Z,98334.52
2017-12-04T07:49:56.836Z,98329.58
2017-12-04T07:52:23.184Z,98328.61
2017-12-04T07:54:49.250Z,98329.30
2017-12-04T07:57:15.234Z,98326.52
2017-12-04T07:59:41.320Z,98328.55
2017-12-04T08:02:07.430Z,98334.03
2017-12-04T08:04:33.606Z,98346.13
2017-12-04T08:06:59.689Z,98340.20
2017-12-04T08:09:25.853Z,98338.35
2017-12-04T08:11:51.898Z,98352.88
2017-12-04T08:14:17.939Z,98349.17
2017-12-04T08:16:44.028Z,98356.55
2017-12-04T08:19:10.472Z,98355.58
2017-12-04T08:21:36.993Z,98366.15
2017-12-04T08:24:03.294Z,98376.57
2017-12-04T08:26:29.814Z,98366.39
2017-12-04T08:28:56.280Z,98371.05
2017-12-04T08:31:22.483Z,98369.84
2017-12-04T08:33:49.015Z,98369.20
2017-12-04T08:36:15.146Z,98378.80
2017-12-04T08:38:41.353Z,98373.90
2017-12-04T08:41:07.866Z,98377.14
2017-12-04T08:43:34.308Z,98386.64
2017-12-04T08:46:05.426Z,98377.77
2017-12-04T08:48:31.925Z,98375.86
2017-12-04T08:50:58.274Z,98373.51
2017-12-04T08:53:24.588Z,98374.44
2017-12-04T08:55:50.818Z,98384.19
2017-12-04T08:58:17.333Z,98390.70
2017-12-04T09:00:43.777Z,98399.02
2017-12-04T09:03:09.949Z,98396.33
2017-12-04T09:05:36.430Z,98406.51
2017-12-04T09:08:06.637Z,98417.38
2017-12-04T09:10:32.975Z,98412.88
2017-12-04T09:12:59.385Z,98421.94
2017-12-04T09:15:25.369Z,98417.03
2017-12-04T09:17:51.577Z,98420.47
2017-12-04T09:20:17.689Z,98413.27
2017-12-04T09:22:43.858Z,98415.76
2017-12-04T09:25:09.955Z,98407.23
2017-12-04T09:27:36.188Z,98414.04
2017-12-04T09:30:02.261Z,98411.09
2017-12-04T09:32:28.400Z,98415.88
2017-12-04T09:34:54.508Z,98417.94
2017-12-04T09:37:20.646Z,98420.83
2017-12-04T09:39:46.759Z,98422.10
2017-12-04T09:42:12.786Z,98421.26
2017-12-04T09:44:38.888Z,98422.05
2017-12-04T09:47:05.072Z,98429.94
2017-12-04T09:49:31.172Z,98433.36
2017-12-04T09:51:57.319Z,98431.16
2017-12-04T09:54:23.440Z,98442.48
2017-12-04T09:56:49.484Z,98435.75
2017-12-04T09:59:15.595Z,98438.09
2017-12-04T10:01:41.722Z,98433.77
2017-12-04T10:04:07.772Z,98435.00
2017-12-04T10:06:33.810Z,98442.97
2017-12-04T10:08:59.919Z,98443.20
2017-12-04T10:11:26.066Z,98447.89
2017-12-04T10:13:52.317Z,98445.68
2017-12-04T10:16:18.463Z,98446.08
2017-12-04T10:18:44.507Z,98436.92
2017-12-04T10:21:10.572Z,98437.23
2017-12-04T10:23:36.666Z,98430.20
2017-12-04T10:26:02.778Z,98428.82
2017-12-04T10:28:28.924Z,98423.86
2017-12-04T10:30:54.962Z,98422.02
2017-12-04T10:33:21.604Z,98421.58
2017-12-04T10:35:47.627Z,98431.58
2017-12-04T10:38:13.716Z,98428.65
2017-12-04T10:40:39.833Z,98432.19
2017-12-04T10:43:05.928Z,98426.06
2017-12-04T10:45:32.198Z,98420.03
2017-12-04T10:47:58.322Z,98417.31
2017-12-04T10:50:24.394Z,98411.16
2017-12-04T10:52:50.465Z,98408.42
2017-12-04T10:55:16.674Z,98410.96
2017-12-04T10:57:44.209Z,98403.08
2017-12-04T11:00:10.481Z,98410.81
2017-12-04T11:02:36.621Z,98408.55
2017-12-04T11:05:02.904Z,98415.17
2017-12-04T11:07:28.997Z,98414.91
2017-12-04T11:09:55.105Z,98420.16
2017-12-04T11:12:21.405Z,98418.43
2017-12-04T11:14:47.629Z,98408.50
2017-12-04T11:17:13.991Z,98411.10
2017-12-04T11:19:40.142Z,98413.52
2017-12-04T11:22:06.291Z,98413.62
2017-12-04T11:24:33.142Z,98417.59
2017-12-04T11:26:59.438Z,98411.60
2017-12-04T11:29:25.621Z,98417.85
2017-12-04T11:31:51.880Z,98411.06
2017-12-04T11:34:18.116Z,98414.28
2017-12-04T11:36:44.317Z,98412.36
2017-12-04T11:39:11.573Z,98416.41
2017-12-04T11:41:37.755Z,98411.88
2017-12-04T11:44:03.787Z,98411.24
2017-12-04T11:46:30.122Z,98417.08
2017-12-04T11:48:56.317Z,98411.17
2017-12-04T11:51:22.417Z,98419.50
2017-12-04T11:53:48.592Z,98416.29
2017-12-04T11:56:14.680Z,98418.19
2017-12-04T11:58:40.747Z,98419.44
2017-12-04T12:01:06.800Z,98417.81
2017-12-04T12:03:32.816Z,98423.77
2017-12-04T12:05:58.902Z,98415.48
2017-12-04T12:08:24.967Z,98420.07
2017-12-04T12:10:51.165Z,98421.20
2017-12-04T12:13:17.255Z,98419.61
2017-12-04T12:15:43.376Z,98421.64
2017-12-04T12:18:09.461Z,98417.61
2017-12-04T12:20:35.584Z,98426.64
2017-12-04T12:23:01.591Z,98419.73
2017-12-04T12:25:28.257Z,98424.52
2017-12-04T12:27:54.270Z,98422.52
2017-12-04T12:30:20.310Z,98420.59
2017-12-04T12:32:46.362Z,98421.77
2017-12-04T12:35:12.478Z,98419.94
2017-12-04T12:37:38.589Z,98419.33
2017-12-04T12:40:04.644Z,98426.14
2017-12-04T12:42:30.852Z,98433.28
2017-12-04T12:44:56.940Z,98429.53
2017-12-04T12:47:23.091Z,98431.84
2017-12-04T12:49:49.270Z,98432.36
2017-12-04T12:52:15.275Z,98428.55
2017-12-04T12:54:41.491Z,98431.30
2017-12-04T12:57:07.508Z,98437.99
2017-12-04T12:59:33.616Z,98433.97
2017-12-04T13:01:59.766Z,98438.87
2017-12-04T13:04:25.859Z,98444.07
2017-12-04T13:06:51.911Z,98444.84
2017-12-04T13:09:17.944Z,98441.85
2017-12-04T13:11:44.095Z,98435.78
2017-12-04T13:14:10.251Z,98437.61
2017-12-04T13:16:36.312Z,98436.78
2017-12-04T13:19:02.522Z,98440.30
2017-12-04T13:21:28.697Z,98437.22
2017-12-04T13:23:55.715Z,98440.41
2017-12-04T13:26:21.797Z,98435.62
2017-12-04T13:28:47.813Z,98440.52
2017-12-04T13:31:13.997Z,98437.83
2017-12-04T13:33:52.091Z,98430.81
2017-12-04T13:36:31.037Z,98431.75
2017-12-04T13:38:57.182Z,98432.23
2017-12-04T13:41:23.327Z,98433.56
2017-12-04T13:43:50.101Z,98435.67
2017-12-04T13:46:16.141Z,98429.49
2017-12-04T13:48:42.259Z,98436.22
2017-12-04T13:51:08.442Z,98435.30
2017-12-04T13:53:34.518Z,98433.56
2017-12-04T13:56:00.836Z,98427.78
2017-12-04T13:58:26.902Z,98425.22
2017-12-04T14:00:52.970Z,98431.36
2017-12-04T14:03:19.082Z,98426.95
2017-12-04T14:05:45.136Z,98424.80
2017-12-04T14:08:11.233Z,98431.09
2017-12-04T14:10:37.267Z,98428.54
2017-12-04T14:13:03.280Z,98432.13
2017-12-04T14:15:29.346Z,98430.09
2017-12-04T14:17:55.493Z,98436.82
2017-12-04T14:20:21.542Z,98429.91
2017-12-04T14:22:47.550Z,98432.17
2017-12-04T14:25:13.700Z,98429.53
2017-12-04T14:27:39.839Z,98430.84
2017-12-04T14:30:05.946Z,98426.33
2017-12-04T14:32:32.127Z,98434.23
2017-12-04T14:34:58.237Z,98433.34
2017-12-04T14:37:24.265Z,98439.19
2017-12-04T14:39:50.504Z,98446.36
2017-12-04T14:42:17.603Z,98451.82
2017-12-04T14:44:43.733Z,98467.08
2017-12-04T14:47:09.819Z,98462.77
2017-12-04T14:49:36.028Z,98464.61
2017-12-04T14:52:02.254Z,98473.54
2017-12-04T14:54:28.364Z,98477.27
2017-12-04T14:56:54.597Z,98469.48
2017-12-04T14:59:20.672Z,98477.58
2017-12-04T15:01:49.989Z,98485.58
2017-12-04T15:04:16.148Z,98490.59
2017-12-04T15:06:42.160Z,98497.45
2017-12-04T15:09:08.606Z,98503.30
2017-12-04T15:11:34.678Z,98505.66
2017-12-04T15:14:00.799Z,98514.14
2017-12-04T15:16:27.051Z,98509.81
2017-12-04T15:18:53.157Z,98499.72
2017-12-04T15:21:25.118Z,98505.02
2017-12-04T15:23:53.322Z,98497.52
2017-12-04T15:26:19.995Z,98502.03
2017-12-04T15:28:46.390Z,98507.81
2017-12-04T15:31:12.666Z,98515.36
2017-12-04T15:33:39.085Z,98516.69
2017-12-04T15:36:05.632Z,98520.31
2017-12-04T15:38:33.042Z,98518.59
2017-12-04T15:40:59.426Z,98522.13
2017-12-04T15:43:26.168Z,98524.34
2017-12-04T15:45:52.511Z,98526.93
2017-12-04T15:48:18.930Z,98534.83
2017-12-04T15:50:45.331Z,98534.48
2017-12-04T15:53:11.881Z,98528.75
2017-12-04T15:55:39.089Z,98534.98
2017-12-04T15:58:05.399Z,98531.98
2017-12-04T16:00:31.835Z,98527.61
2017-12-04T16:02:58.569Z,98529.83
2017-12-04T16:05:25.103Z,98530.36
2017-12-04T16:07:51.653Z,98526.94
2017-12-04T16:10:18.162Z,98527.03
2017-12-04T16:12:44.615Z,98529.72
2017-12-04T16:15:11.671Z,98526.69
2017-12-04T16:17:37.930Z,98532.91
2017-12-04T16:20:04.421Z,98533.39
2017-12-04T16:22:30.691Z,98534.73
2017-12-04T16:24:57.897Z,98533.88
2017-12-04T16:27:25.096Z,98535.70
2017-12-04T16:29:51.251Z,98536.53
2017-12-04T16:35:10.150Z,98525.55
2017-12-04T16:37:36.465Z,98532.66
2017-12-04T16:40:02.578Z,98526.05
2017-12-04T16:45:21.253Z,98533.64
2017-12-04T16:47:47.627Z,98545.10
2017-12-04T16:50:13.986Z,98548.19
2017-12-04T16:52:40.409Z,98552.11
2017-12-04T16:55:06.688Z,98556.07
2017-12-04T16:57:32.793Z,98564.80
2017-12-04T16:59:59.439Z,98571.81
2017-12-04T17:02:25.600Z,98579.30
2017-12-04T17:07:34.468Z,98581.81
2017-12-04T17:10:00.625Z,98583.97
2017-12-04T17:12:27.054Z,98587.49
2017-12-04T17:14:53.330Z,98588.73
2017-12-04T17:17:22.226Z,98588.73
2017-12-04T17:19:48.309Z,98590.97
2017-12-04T17:22:14.644Z,98594.02
2017-12-04T17:24:40.911Z,98596.27
2017-12-04T17:27:07.049Z,98604.21
2017-12-04T17:29:33.348Z,98595.88
2017-12-04T17:31:59.633Z,98593.68
2017-12-04T17:34:33.602Z,98596.75
2017-12-04T17:37:00.657Z,98595.93
2017-12-04T17:39:27.765Z,98602.59
2017-12-04T17:41:56.335Z,98606.55
2017-12-04T17:44:23.078Z,98601.27
2017-12-04T17:46:49.701Z,98607.83
2017-12-04T17:49:16.479Z,98600.38
2017-12-04T17:51:42.955Z,98597.69
2017-12-04T17:54:09.305Z,98600.34
2017-12-04T17:56:35.755Z,98599.90
2017-12-04T17:59:02.093Z,98601.27
2017-12-04T18:01:30.669Z,98605.72
2017-12-04T18:03:57.081Z,98609.73
2017-12-04T18:06:24.730Z,98618.61
2017-12-04T18:08:51.199Z,98613.36
2017-12-04T18:11:18.726Z,98617.33
2017-12-04T18:13:45.289Z,98612.48
2017-12-04T18:16:12.679Z,98615.61
2017-12-04T18:18:40.579Z,98620.45
2017-12-04T18:21:07.048Z,98619.58
2017-12-04T18:23:33.671Z,98623.55
2017-12-04T18:26:00.265Z,98618.31
2017-12-04T18:28:31.615Z,98621.00
2017-12-04T18:31:00.399Z,98616.67
2017-12-04T18:33:27.244Z,98618.92
2017-12-04T18:35:54.160Z,98621.17
2017-12-04T18:38:21.375Z,98624.66
2017-12-04T18:40:47.911Z,98626.86
2017-12-04T18:43:14.741Z,98626.34
2017-12-04T18:45:41.320Z,98625.93
2017-12-04T18:48:07.545Z,98634.71
2017-12-04T18:50:33.730Z,98628.59
2017-12-04T18:52:59.812Z,98637.40
2017-12-04T18:55:26.220Z,98629.91
2017-12-04T18:57:52.411Z,98631.63
2017-12-04T19:00:19.332Z,98636.92
2017-12-04T19:02:45.618Z,98633.88
2017-12-04T19:05:11.744Z,98635.23
2017-12-04T19:07:37.910Z,98633.53
2017-12-04T19:10:05.052Z,98635.73
2017-12-04T19:12:31.199Z,98638.73
2017-12-04T19:14:57.948Z,98640.89
2017-12-04T19:17:24.072Z,98640.00
2017-12-04T19:19:50.211Z,98636.47
2017-12-04T19:22:17.133Z,98640.89
2017-12-04T19:24:43.203Z,98639.17
2017-12-04T19:27:09.689Z,98645.03
2017-12-04T19:29:35.961Z,98635.77
2017-12-04T19:32:02.433Z,98641.47
2017-12-04T19:34:28.590Z,98645.03
2017-12-04T19:36:54.723Z,98640.67
2017-12-04T19:39:21.201Z,98641.55
2017-12-04T19:41:47.589Z,98638.91
2017-12-04T19:44:14.009Z,98644.11
2017-12-04T19:46:40.427Z,98647.23
2017-12-04T19:49:06.766Z,98645.92
2017-12-04T19:51:33.819Z,98654.78
2017-12-04T19:54:00.086Z,98660.13
2017-12-04T19:56:26.273Z,98656.23
2017-12-04T19:58:52.425Z,98651.44
2017-12-04T20:01:18.532Z,98658.18
2017-12-04T20:03:44.625Z,98654.34
2017-12-04T20:06:10.712Z,98655.67
2017-12-04T20:08:36.876Z,98666.29
2017-12-04T20:11:02.985Z,98661.97
2017-12-04T20:13:29.140Z,98668.19
2017-12-04T20:15:55.310Z,98661.58
2017-12-04T20:18:21.542Z,98663.34
2017-12-04T20:20:47.707Z,98663.34
2017-12-04T20:23:14.082Z,98667.30
2017-12-04T20:25:40.334Z,98667.30
2017-12-04T20:28:06.476Z,98679.69
2017-12-04T20:30:32.779Z,98673.97
2017-12-04T20:32:59.019Z,98685.95
2017-12-04T20:35:25.216Z,98681.63
2017-12-04T20:37:51.512Z,98682.56
2017-12-04T20:40:17.947Z,98687.89
2017-12-04T20:42:44.212Z,98689.13
2017-12-04T20:45:10.430Z,98685.03
2017-12-04T20:47:36.621Z,98691.55
2017-12-04T20:50:02.806Z,98684.89
2017-12-04T20:52:28.932Z,98681.28
2017-12-04T20:54:55.236Z,98690.94
2017-12-04T20:57:21.309Z,98695.83
2017-12-04T20:59:47.427Z,98694.51
2017-12-04T21:02:13.556Z,98693.23
2017-12-04T21:04:39.739Z,98702.88
2017-12-04T21:07:05.858Z,98700.67
2017-12-04T21:09:44.097Z,98705.48
2017-12-04T21:12:10.244Z,98704.64
2017-12-04T21:17:43.455Z,98695.52
2017-12-04T21:20:09.534Z,98698.69
2017-12-04T21:22:35.762Z,98697.02
2017-12-04T21:25:01.967Z,98701.91
2017-12-04T21:27:28.009Z,98701.55
2017-12-04T21:29:54.254Z,98702.52
2017-12-04T21:32:20.352Z,98699.08
2017-12-04T21:34:46.595Z,98705.73
2017-12-04T21:37:12.660Z,98700.89
2017-12-04T21:39:38.860Z,98695.64
2017-12-04T21:42:05.691Z,98702.69
2017-12-04T21:44:31.998Z,98705.77
2017-12-04T21:46:58.071Z,98698.36
2017-12-04T21:49:24.391Z,98700.57
2017-12-04T21:51:50.441Z,98702.33
2017-12-04T21:54:16.542Z,98710.71
2017-12-04T21:56:42.684Z,98711.19
2017-12-04T21:59:08.839Z,98717.31
2017-12-04T22:01:35.000Z,98711.15
2017-12-04T22:04:01.016Z,98712.08
2017-12-04T22:06:27.240Z,98713.03
2017-12-04T22:08:55.404Z,98715.72
2017-12-04T22:11:21.800Z,98719.20
2017-12-04T22:13:47.954Z,98724.49
2017-12-04T22:16:14.084Z,98725.30
2017-12-04T22:18:40.244Z,98725.33
2017-12-04T22:21:06.469Z,98734.98
2017-12-04T22:23:32.769Z,98736.30
2017-12-04T22:25:58.943Z,98743.75
2017-12-04T22:28:25.048Z,98741.52
2017-12-04T22:30:51.357Z,98745.03
2017-12-04T22:33:17.425Z,98749.84
2017-12-04T22:35:43.536Z,98745.00
2017-12-04T22:38:09.653Z,98748.48
2017-12-04T22:40:36.042Z,98750.16
2017-12-04T22:43:02.158Z,98747.95
2017-12-04T22:45:28.205Z,98744.03
2017-12-04T22:47:54.278Z,98752.00
2017-12-04T22:50:20.392Z,98751.13
2017-12-04T22:52:46.485Z,98743.23
2017-12-04T22:55:12.613Z,98749.36
2017-12-04T22:57:38.672Z,98756.29
2017-12-04T23:00:04.756Z,98756.59
2017-12-04T23:02:30.920Z,98760.45
2017-12-04T23:04:57.190Z,98754.23
2017-12-04T23:07:23.348Z,98762.96
2017-12-04T23:09:49.464Z,98761.55
2017-12-04T23:12:15.610Z,98765.87
2017-12-04T23:14:41.711Z,98764.91
2017-12-04T23:17:07.969Z,98768.40
2017-12-04T23:19:34.079Z,98774.56
2017-12-04T23:22:00.261Z,98775.41
2017-12-04T23:24:26.472Z,98781.48
2017-12-04T23:26:52.539Z,98783.22
2017-12-04T23:29:18.660Z,98780.56
2017-12-04T23:31:44.695Z,98781.89
2017-12-04T23:34:10.842Z,98777.48
2017-12-04T23:36:36.907Z,98778.84
2017-12-04T23:39:03.054Z,98780.56
2017-12-04T23:41:29.219Z,98781.81
2017-12-04T23:43:55.721Z,98783.97
2017-12-04T23:46:21.728Z,98786.12
2017-12-04T23:48:47.772Z,98784.77
2017-12-04T23:51:13.961Z,98787.81
2017-12-04T23:53:39.972Z,98786.88
2017-12-04T23:56:06.122Z,98791.25
2017-12-04T23:58:32.134Z,98791.66
